createdAt,value
2023-09-03T00:00:55.796Z,102100.75
2023-09-03T00:03:44.578Z,102106.20
2023-09-03T00:06:12.668Z,102107.77
2023-09-03T00:08:40.738Z,102109.52
2023-09-03T00:11:09.011Z,102114.79
2023-09-03T00:13:37.081Z,102108.65
2023-09-03T00:16:05.186Z,102108.83
2023-09-03T00:18:33.857Z,102109.01
2023-09-03T00:21:06.595Z,102105.66
2023-09-03T00:23:34.852Z,102104.44
2023-09-03T00:26:03.553Z,102101.81
2023-09-03T00:28:32.391Z,102100.23
2023-09-03T00:31:05.309Z,102102.00
2023-09-03T00:33:33.542Z,102106.92
2023-09-03T00:36:03.666Z,102109.90
2023-09-03T00:38:32.916Z,102102.17
2023-09-03T00:41:00.981Z,102104.98
2023-09-03T00:43:29.175Z,102103.06
2023-09-03T00:45:58.038Z,102103.94
2023-09-03T00:48:30.271Z,102103.23
2023-09-03T00:51:03.144Z,102104.46
2023-09-03T00:53:32.428Z,102103.41
2023-09-03T00:56:00.891Z,102107.63
2023-09-03T00:58:29.182Z,102106.58
2023-09-03T01:00:58.315Z,102107.45
2023-09-03T01:03:27.516Z,102103.41
2023-09-03T01:05:55.800Z,102102.37
2023-09-03T01:08:24.977Z,102098.69
2023-09-03T01:11:05.401Z,102099.56
2023-09-03T01:13:46.079Z,102098.52
2023-09-03T01:16:26.240Z,102095.88
2023-09-03T01:18:56.753Z,102093.60
2023-09-03T01:21:49.915Z,102089.39
2023-09-03T01:24:46.752Z,102088.34
2023-09-03T01:27:59.720Z,102085.02
2023-09-03T01:33:45.630Z,102081.84
2023-09-03T01:36:15.598Z,102078.17
2023-09-03T01:38:43.739Z,102077.47
2023-09-03T01:41:12.105Z,102074.31
2023-09-03T01:43:40.405Z,102074.31
2023-09-03T01:46:19.844Z,102073.09
2023-09-03T01:49:12.719Z,102067.83
2023-09-03T01:52:02.785Z,102069.58
2023-09-03T01:54:35.796Z,102071.16
2023-09-03T01:57:13.844Z,102065.71
2023-09-03T01:59:49.746Z,102072.20
2023-09-03T02:02:19.827Z,102069.58
2023-09-03T02:04:48.102Z,102072.73
2023-09-03T02:07:16.455Z,102075.88
2023-09-03T02:09:44.520Z,102079.75
2023-09-03T02:12:12.538Z,102087.64
2023-09-03T02:14:40.498Z,102091.84
2023-09-03T02:17:10.426Z,102100.08
2023-09-03T02:19:38.492Z,102094.98
2023-09-03T02:22:06.508Z,102095.70
2023-09-03T02:24:34.443Z,102095.16
2023-09-03T02:27:02.506Z,102091.66
2023-09-03T02:29:30.536Z,102098.15
2023-09-03T02:31:58.589Z,102091.31
2023-09-03T02:34:27.492Z,102090.79
2023-09-03T02:36:55.767Z,102099.72
2023-09-03T02:39:24.332Z,102103.40
2023-09-03T02:41:53.437Z,102102.35
2023-09-03T02:44:22.772Z,102108.48
2023-09-03T02:46:51.413Z,102111.98
2023-09-03T02:49:19.417Z,102112.16
2023-09-03T02:51:47.572Z,102115.32
2023-09-03T02:54:15.841Z,102115.48
2023-09-03T02:56:44.003Z,102116.36
2023-09-03T02:59:12.181Z,102113.91
2023-09-03T03:01:41.281Z,102112.86
2023-09-03T03:04:10.265Z,102113.90
2023-09-03T03:06:38.288Z,102117.92
2023-09-03T03:09:06.341Z,102116.70
2023-09-03T03:11:34.725Z,102108.11
2023-09-03T03:14:03.585Z,102109.52
2023-09-03T03:16:34.712Z,102104.77
2023-09-03T03:19:06.165Z,102108.27
2023-09-03T03:21:37.259Z,102105.64
2023-09-03T03:24:07.106Z,102104.59
2023-09-03T03:26:39.662Z,102099.33
2023-09-03T03:29:11.020Z,102097.56
2023-09-03T03:31:45.050Z,102097.88
2023-09-03T03:34:13.626Z,102095.26
2023-09-03T03:36:42.733Z,102102.08
2023-09-03T03:39:10.910Z,102103.83
2023-09-03T03:41:39.528Z,102109.27
2023-09-03T03:44:11.133Z,102112.59
2023-09-03T03:46:39.627Z,102118.90
2023-09-03T03:49:07.686Z,102119.07
2023-09-03T03:51:36.333Z,102116.08
2023-09-03T03:54:05.691Z,102113.28
2023-09-03T03:56:34.398Z,102118.18
2023-09-03T03:59:02.734Z,102123.95
2023-09-03T04:01:31.219Z,102122.73
2023-09-03T04:03:59.798Z,102120.11
2023-09-03T04:06:29.211Z,102121.33
2023-09-03T04:08:57.584Z,102119.23
2023-09-03T04:11:26.062Z,102121.33
2023-09-03T04:13:54.202Z,102118.01
2023-09-03T04:16:26.077Z,102111.36
2023-09-03T04:18:54.684Z,102107.51
2023-09-03T04:21:22.945Z,102109.61
2023-09-03T04:23:51.042Z,102109.08
2023-09-03T04:26:19.291Z,102105.23
2023-09-03T04:28:51.364Z,102107.52
2023-09-03T04:31:19.506Z,102107.90
2023-09-03T04:33:47.789Z,102109.32
2023-09-03T04:36:15.926Z,102111.09
2023-09-03T04:38:44.174Z,102108.82
2023-09-03T04:41:14.810Z,102107.60
2023-09-03T04:43:49.548Z,102107.60
2023-09-03T04:46:23.400Z,102107.96
2023-09-03T04:48:51.456Z,102113.23
2023-09-03T04:51:19.598Z,102108.50
2023-09-03T04:53:49.728Z,102112.71
2023-09-03T04:56:18.208Z,102112.73
2023-09-03T04:58:47.653Z,102111.30
2023-09-03T05:01:16.461Z,102116.58
2023-09-03T05:03:46.193Z,102116.20
2023-09-03T05:06:17.073Z,102116.84
2023-09-03T05:08:46.871Z,102117.11
2023-09-03T05:11:17.943Z,102118.57
2023-09-03T05:13:47.865Z,102126.63
2023-09-03T05:16:17.908Z,102124.93
2023-09-03T05:18:46.262Z,102125.74
2023-09-03T05:21:15.351Z,102136.46
2023-09-03T05:23:43.749Z,102140.02
2023-09-03T05:26:12.053Z,102143.14
2023-09-03T05:28:42.157Z,102140.18
2023-09-03T05:31:11.975Z,102138.67
2023-09-03T05:33:40.979Z,102134.08
2023-09-03T05:36:09.703Z,102134.48
2023-09-03T05:38:37.735Z,102136.52
2023-09-03T05:41:05.758Z,102139.19
2023-09-03T05:43:33.843Z,102141.60
2023-09-03T05:46:02.168Z,102135.85
2023-09-03T05:48:31.512Z,102136.60
2023-09-03T05:51:05.450Z,102131.86
2023-09-03T05:53:36.392Z,102134.77
2023-09-03T05:56:06.366Z,102139.20
2023-09-03T05:58:34.649Z,102138.98
2023-09-03T06:01:08.188Z,102143.18
2023-09-03T06:03:36.930Z,102140.48
2023-09-03T06:06:10.153Z,102144.52
2023-09-03T06:08:39.513Z,102150.62
2023-09-03T06:11:07.545Z,102152.82
2023-09-03T06:13:35.655Z,102151.99
2023-09-03T06:16:03.877Z,102155.71
2023-09-03T06:18:32.083Z,102155.52
2023-09-03T06:21:00.097Z,102154.25
2023-09-03T06:23:28.245Z,102153.64
2023-09-03T06:25:56.339Z,102159.52
2023-09-03T06:28:25.014Z,102151.65
2023-09-03T06:30:53.857Z,102156.92
2023-09-03T06:33:21.884Z,102157.58
2023-09-03T06:35:49.911Z,102152.39
2023-09-03T06:38:18.095Z,102150.23
2023-09-03T06:40:46.362Z,102149.08
2023-09-03T06:43:14.345Z,102142.44
2023-09-03T06:45:42.493Z,102149.91
2023-09-03T06:48:10.675Z,102154.60
2023-09-03T06:50:42.692Z,102161.69
2023-09-03T06:53:12.137Z,102160.23
2023-09-03T06:55:40.118Z,102161.59
2023-09-03T06:58:08.194Z,102162.48
2023-09-03T07:00:36.399Z,102162.62
2023-09-03T07:03:04.889Z,102165.42
2023-09-03T07:05:33.009Z,102166.41
2023-09-03T07:08:01.095Z,102165.73
2023-09-03T07:10:29.201Z,102171.73
2023-09-03T07:12:57.210Z,102176.23
2023-09-03T07:15:25.506Z,102181.75
2023-09-03T07:17:53.585Z,102181.63
2023-09-03T07:20:21.938Z,102181.69
2023-09-03T07:22:50.114Z,102178.72
2023-09-03T07:25:18.383Z,102177.97
2023-09-03T07:27:46.785Z,102177.36
2023-09-03T07:30:14.947Z,102183.95
2023-09-03T07:32:43.237Z,102183.70
2023-09-03T07:35:12.016Z,102188.61
2023-09-03T07:37:40.207Z,102187.02
2023-09-03T07:40:09.533Z,102185.15
2023-09-03T07:42:37.553Z,102184.31
2023-09-03T07:45:06.036Z,102180.60
2023-09-03T07:47:34.223Z,102186.80
2023-09-03T07:50:02.699Z,102191.36
2023-09-03T07:52:30.955Z,102194.62
2023-09-03T07:54:59.019Z,102192.05
2023-09-03T07:57:29.247Z,102197.13
2023-09-03T07:59:57.475Z,102199.83
2023-09-03T08:02:25.476Z,102197.34
2023-09-03T08:04:53.555Z,102198.58
2023-09-03T08:07:21.724Z,102198.10
2023-09-03T08:09:50.514Z,102204.34
2023-09-03T08:12:18.508Z,102195.02
2023-09-03T08:14:49.933Z,102193.29
2023-09-03T08:17:18.109Z,102198.95
2023-09-03T08:19:46.449Z,102206.02
2023-09-03T08:22:14.661Z,102204.20
2023-09-03T08:24:42.770Z,102200.57
2023-09-03T08:27:10.798Z,102204.67
2023-09-03T08:29:38.834Z,102207.98
2023-09-03T08:32:07.561Z,102207.40
2023-09-03T08:34:35.566Z,102208.77
2023-09-03T08:37:03.918Z,102211.14
2023-09-03T08:39:32.385Z,102212.39
2023-09-03T08:42:00.954Z,102211.98
2023-09-03T08:44:46.832Z,102208.34
2023-09-03T08:47:18.309Z,102212.66
2023-09-03T08:49:46.957Z,102209.05
2023-09-03T08:52:17.348Z,102206.63
2023-09-03T08:54:46.259Z,102202.41
2023-09-03T08:57:14.465Z,102199.09
2023-09-03T08:59:42.651Z,102193.86
2023-09-03T09:02:14.552Z,102194.48
2023-09-03T09:04:43.083Z,102191.75
2023-09-03T09:07:11.357Z,102188.67
2023-09-03T09:09:41.072Z,102190.92
2023-09-03T09:12:34.739Z,102192.28
2023-09-03T09:15:05.948Z,102190.05
2023-09-03T09:17:41.482Z,102182.84
2023-09-03T09:20:14.093Z,102181.07
2023-09-03T09:22:49.970Z,102186.27
2023-09-03T09:25:23.209Z,102188.89
2023-09-03T09:27:54.236Z,102187.09
2023-09-03T09:30:26.140Z,102183.56
2023-09-03T09:33:08.785Z,102179.98
2023-09-03T09:35:37.261Z,102180.11
2023-09-03T09:38:06.983Z,102174.38
2023-09-03T09:40:38.362Z,102175.67
2023-09-03T09:43:10.793Z,102175.86
2023-09-03T09:45:53.417Z,102175.77
2023-09-03T09:48:21.654Z,102174.64
2023-09-03T09:50:50.034Z,102175.76
2023-09-03T09:53:24.960Z,102174.41
2023-09-03T09:56:04.456Z,102179.77
2023-09-03T09:58:37.344Z,102176.95
2023-09-03T10:01:06.719Z,102173.54
2023-09-03T10:03:46.377Z,102175.97
2023-09-03T10:06:16.016Z,102177.23
2023-09-03T10:08:51.553Z,102181.14
2023-09-03T10:11:21.014Z,102181.97
2023-09-03T10:13:50.415Z,102180.69
2023-09-03T10:16:21.013Z,102178.58
2023-09-03T10:18:51.488Z,102183.75
2023-09-03T10:21:46.621Z,102190.48
2023-09-03T10:24:18.941Z,102188.31
2023-09-03T10:26:52.307Z,102188.25
2023-09-03T10:29:23.127Z,102192.77
2023-09-03T10:31:53.403Z,102190.62
2023-09-03T10:34:21.956Z,102193.01
2023-09-03T10:37:09.390Z,102196.79
2023-09-03T10:39:39.908Z,102194.67
2023-09-03T10:42:17.503Z,102200.79
2023-09-03T10:44:51.625Z,102198.04
2023-09-03T10:47:20.295Z,102192.42
2023-09-03T10:49:50.907Z,102192.73
2023-09-03T10:52:33.274Z,102188.52
2023-09-03T10:55:21.458Z,102189.98
2023-09-03T10:58:24.793Z,102194.17
2023-09-03T11:01:27.846Z,102191.85
2023-09-03T11:03:56.077Z,102192.10
2023-09-03T11:06:29.135Z,102191.76
2023-09-03T11:09:00.004Z,102185.03
2023-09-03T11:11:34.847Z,102186.26
2023-09-03T11:14:04.271Z,102186.52
2023-09-03T11:16:41.625Z,102185.76
2023-09-03T11:19:10.056Z,102183.70
2023-09-03T11:21:39.086Z,102175.73
2023-09-03T11:24:20.029Z,102170.23
2023-09-03T11:27:05.037Z,102170.67
2023-09-03T11:29:33.309Z,102167.60
2023-09-03T11:32:01.848Z,102170.49
2023-09-03T11:34:30.902Z,102178.94
2023-09-03T11:36:59.353Z,102176.80
2023-09-03T11:39:28.053Z,102175.44
2023-09-03T11:41:56.330Z,102178.42
2023-09-03T11:44:25.980Z,102179.48
2023-09-03T11:47:02.296Z,102179.42
2023-09-03T11:49:30.634Z,102182.03
2023-09-03T11:52:14.125Z,102177.15
2023-09-03T11:54:43.384Z,102178.91
2023-09-03T11:57:16.860Z,102182.23
2023-09-03T11:59:45.243Z,102180.52
2023-09-03T12:02:14.240Z,102171.55
2023-09-03T12:04:44.289Z,102177.42
2023-09-03T12:07:17.770Z,102179.90
2023-09-03T12:09:49.325Z,102181.51
2023-09-03T12:12:18.261Z,102188.20
2023-09-03T12:14:46.436Z,102193.08
2023-09-03T12:17:27.792Z,102190.72
2023-09-03T12:19:56.412Z,102189.99
2023-09-03T12:22:24.588Z,102196.11
2023-09-03T12:24:54.830Z,102194.34
2023-09-03T12:27:23.126Z,102201.84
2023-09-03T12:29:56.589Z,102206.47
2023-09-03T12:32:38.874Z,102213.95
2023-09-03T12:35:17.649Z,102217.95
2023-09-03T12:37:46.454Z,102217.23
2023-09-03T12:40:14.799Z,102211.16
2023-09-03T12:42:42.972Z,102208.56
2023-09-03T12:45:11.460Z,102209.97
2023-09-03T12:47:39.670Z,102207.66
2023-09-03T12:50:09.053Z,102203.66
2023-09-03T12:52:37.348Z,102209.67
2023-09-03T12:55:06.263Z,102207.16
2023-09-03T12:57:34.429Z,102205.04
2023-09-03T13:00:06.356Z,102207.83
2023-09-03T13:02:35.077Z,102205.81
2023-09-03T13:05:03.470Z,102204.73
2023-09-03T13:07:31.666Z,102206.88
2023-09-03T13:09:59.825Z,102213.95
2023-09-03T13:12:27.827Z,102214.13
2023-09-03T13:14:56.058Z,102220.06
2023-09-03T13:17:26.055Z,102219.64
2023-09-03T13:19:54.372Z,102222.41
2023-09-03T13:22:22.486Z,102231.79
2023-09-03T13:24:50.684Z,102228.70
2023-09-03T13:27:18.756Z,102230.95
2023-09-03T13:29:46.824Z,102237.98
2023-09-03T13:32:15.417Z,102243.10
2023-09-03T13:34:44.806Z,102244.55
2023-09-03T13:37:12.881Z,102246.15
2023-09-03T13:39:41.157Z,102248.50
2023-09-03T13:42:09.327Z,102252.31
2023-09-03T13:44:37.506Z,102250.92
2023-09-03T13:47:07.215Z,102252.89
2023-09-03T13:49:35.248Z,102251.66
2023-09-03T13:52:04.001Z,102247.31
2023-09-03T13:54:32.458Z,102250.64
2023-09-03T13:57:00.630Z,102250.32
2023-09-03T13:59:28.794Z,102251.45
2023-09-03T14:01:56.979Z,102251.45
2023-09-03T14:04:24.982Z,102245.61
2023-09-03T14:06:53.119Z,102242.71
2023-09-03T14:09:21.180Z,102241.34
2023-09-03T14:11:49.157Z,102245.13
2023-09-03T14:14:17.327Z,102244.23
2023-09-03T14:16:45.341Z,102245.44
2023-09-03T14:19:13.663Z,102246.52
2023-09-03T14:21:41.978Z,102247.61
2023-09-03T14:24:10.046Z,102251.45
2023-09-03T14:26:38.191Z,102258.36
2023-09-03T14:29:11.175Z,102261.61
2023-09-03T14:31:41.838Z,102257.53
2023-09-03T14:34:09.853Z,102261.97
2023-09-03T14:36:37.799Z,102258.41
2023-09-03T14:39:06.728Z,102260.21
2023-09-03T14:41:34.723Z,102263.07
2023-09-03T14:44:03.293Z,102264.34
2023-09-03T14:46:31.689Z,102266.83
2023-09-03T14:49:00.636Z,102269.46
2023-09-03T14:51:28.713Z,102273.45
2023-09-03T14:53:57.799Z,102272.83
2023-09-03T14:56:25.873Z,102269.23
2023-09-03T14:58:53.946Z,102274.51
2023-09-03T15:01:25.208Z,102275.95
2023-09-03T15:03:53.938Z,102274.63
2023-09-03T15:06:23.024Z,102278.75
2023-09-03T15:08:51.460Z,102277.70
2023-09-03T15:11:19.615Z,102275.02
2023-09-03T15:13:54.107Z,102276.59
2023-09-03T15:16:22.486Z,102273.30
2023-09-03T15:18:50.696Z,102276.52
2023-09-03T15:21:19.234Z,102278.70
2023-09-03T15:23:47.296Z,102278.05
2023-09-03T15:26:15.518Z,102276.60
2023-09-03T15:28:43.679Z,102280.28
2023-09-03T15:31:12.790Z,102276.91
2023-09-03T15:33:41.063Z,102279.30
2023-09-03T15:36:09.196Z,102281.59
2023-09-03T15:38:38.773Z,102284.87
2023-09-03T15:41:07.130Z,102294.30
2023-09-03T15:43:35.218Z,102300.22
2023-09-03T15:46:03.489Z,102306.68
2023-09-03T15:48:31.743Z,102311.60
2023-09-03T15:50:59.844Z,102313.64
2023-09-03T15:53:29.171Z,102315.13
2023-09-03T15:55:57.842Z,102314.44
2023-09-03T15:58:26.235Z,102318.86
2023-09-03T16:00:54.341Z,102322.91
2023-09-03T16:03:23.337Z,102324.38
2023-09-03T16:05:51.609Z,102328.48
2023-09-03T16:08:20.215Z,102329.04
2023-09-03T16:10:51.115Z,102329.06
2023-09-03T16:13:20.152Z,102331.51
2023-09-03T16:15:48.300Z,102332.37
2023-09-03T16:18:16.612Z,102336.25
2023-09-03T16:20:45.191Z,102336.83
2023-09-03T16:23:13.420Z,102340.57
2023-09-03T16:25:41.476Z,102344.98
2023-09-03T16:28:10.430Z,102349.23
2023-09-03T16:30:38.657Z,102347.13
2023-09-03T16:33:06.716Z,102355.26
2023-09-03T16:35:36.490Z,102358.41
2023-09-03T16:38:05.203Z,102355.95
2023-09-03T16:40:33.564Z,102359.48
2023-09-03T16:43:01.635Z,102361.34
2023-09-03T16:45:29.951Z,102359.83
2023-09-03T16:47:58.182Z,102358.08
2023-09-03T16:50:26.249Z,102357.19
2023-09-03T16:52:54.223Z,102360.40
2023-09-03T16:55:22.461Z,102356.72
2023-09-03T16:57:50.657Z,102361.00
2023-09-03T17:00:18.887Z,102364.71
2023-09-03T17:02:47.114Z,102365.64
2023-09-03T17:05:15.336Z,102368.13
2023-09-03T17:07:44.170Z,102368.90
2023-09-03T17:10:12.382Z,102366.48
2023-09-03T17:12:40.440Z,102364.92
2023-09-03T17:15:09.414Z,102358.58
2023-09-03T17:17:40.953Z,102354.35
2023-09-03T17:20:11.250Z,102357.23
2023-09-03T17:22:39.297Z,102363.08
2023-09-03T17:25:07.632Z,102366.08
2023-09-03T17:27:35.656Z,102371.02
2023-09-03T17:30:03.913Z,102373.31
2023-09-03T17:32:32.001Z,102370.54
2023-09-03T17:35:00.210Z,102365.58
2023-09-03T17:37:28.527Z,102360.84
2023-09-03T17:39:56.999Z,102364.39
2023-09-03T17:42:25.656Z,102372.69
2023-09-03T17:44:53.721Z,102368.27
2023-09-03T17:47:21.686Z,102373.02
2023-09-03T17:49:49.643Z,102380.23
2023-09-03T17:52:17.780Z,102386.75
2023-09-03T17:54:45.806Z,102391.15
2023-09-03T17:57:14.463Z,102393.62
2023-09-03T17:59:42.498Z,102397.89
2023-09-03T18:02:10.595Z,102399.46
2023-09-03T18:04:41.709Z,102400.48
2023-09-03T18:07:09.860Z,102399.06
2023-09-03T18:09:38.605Z,102393.23
2023-09-03T18:12:07.368Z,102399.06
2023-09-03T18:14:35.625Z,102403.66
2023-09-03T18:17:03.719Z,102404.71
2023-09-03T18:19:32.920Z,102404.00
2023-09-03T18:22:00.928Z,102407.18
2023-09-03T18:24:28.870Z,102403.30
2023-09-03T18:26:57.015Z,102397.86
2023-09-03T18:29:25.080Z,102384.64
2023-09-03T18:31:53.074Z,102378.82
2023-09-03T18:34:21.845Z,102379.14
2023-09-03T18:36:49.971Z,102377.35
2023-09-03T18:39:18.203Z,102380.89
2023-09-03T18:41:46.808Z,102392.90
2023-09-03T18:44:14.878Z,102402.80
2023-09-03T18:46:44.680Z,102406.70
2023-09-03T18:49:14.129Z,102410.77
2023-09-03T18:51:46.843Z,102411.67
2023-09-03T18:54:14.961Z,102414.33
2023-09-03T18:56:42.980Z,102410.29
2023-09-03T18:59:11.357Z,102407.30
2023-09-03T19:01:39.374Z,102401.14
2023-09-03T19:04:07.442Z,102392.70
2023-09-03T19:06:35.566Z,102386.55
2023-09-03T19:09:04.032Z,102391.70
2023-09-03T19:11:32.216Z,102397.39
2023-09-03T19:14:00.297Z,102406.95
2023-09-03T19:16:29.846Z,102412.81
2023-09-03T19:18:57.938Z,102415.88
2023-09-03T19:21:27.413Z,102419.96
2023-09-03T19:23:55.441Z,102424.05
2023-09-03T19:26:23.408Z,102424.25
2023-09-03T19:28:51.576Z,102427.98
2023-09-03T19:31:20.063Z,102438.09
2023-09-03T19:33:48.238Z,102452.04
2023-09-03T19:36:16.276Z,102453.65
2023-09-03T19:38:44.294Z,102443.60
2023-09-03T19:41:12.747Z,102441.85
2023-09-03T19:43:40.820Z,102435.70
2023-09-03T19:46:08.992Z,102435.71
2023-09-03T19:48:37.185Z,102440.15
2023-09-03T19:51:05.345Z,102443.90
2023-09-03T19:53:34.082Z,102454.16
2023-09-03T19:56:05.415Z,102453.29
2023-09-03T19:58:34.549Z,102455.42
2023-09-03T20:01:05.024Z,102448.74
2023-09-03T20:03:34.038Z,102448.23
2023-09-03T20:06:02.368Z,102451.25
2023-09-03T20:08:31.922Z,102447.92
2023-09-03T20:11:06.546Z,102438.59
2023-09-03T20:13:34.730Z,102440.88
2023-09-03T20:16:03.897Z,102437.36
2023-09-03T20:18:32.414Z,102441.61
2023-09-03T20:21:01.749Z,102437.21
2023-09-03T20:23:30.336Z,102437.39
2023-09-03T20:26:00.460Z,102440.58
2023-09-03T20:28:43.394Z,102450.82
2023-09-03T20:31:12.796Z,102458.27
2023-09-03T20:33:40.851Z,102465.68
2023-09-03T20:36:09.282Z,102466.74
2023-09-03T20:38:37.454Z,102462.17
2023-09-03T20:41:06.089Z,102456.70
2023-09-03T20:43:35.613Z,102455.32
2023-09-03T20:46:04.114Z,102454.09
2023-09-03T20:48:33.394Z,102454.65
2023-09-03T20:51:02.779Z,102454.83
2023-09-03T20:53:31.662Z,102455.02
2023-09-03T20:56:00.367Z,102459.97
2023-09-03T20:58:28.785Z,102455.93
2023-09-03T21:00:57.199Z,102454.00
2023-09-03T21:03:25.519Z,102456.13
2023-09-03T21:05:55.253Z,102456.66
2023-09-03T21:08:25.586Z,102458.09
2023-09-03T21:11:01.609Z,102455.83
2023-09-03T21:13:30.916Z,102467.30
2023-09-03T21:15:59.506Z,102457.10
2023-09-03T21:18:29.405Z,102453.58
2023-09-03T21:21:02.703Z,102461.70
2023-09-03T21:23:32.430Z,102467.02
2023-09-03T21:26:02.066Z,102464.75
2023-09-03T21:28:30.126Z,102467.95
2023-09-03T21:30:58.407Z,102466.91
2023-09-03T21:33:26.770Z,102462.55
2023-09-03T21:35:54.962Z,102460.46
2023-09-03T21:38:23.908Z,102457.85
2023-09-03T21:40:52.130Z,102460.01
2023-09-03T21:43:20.125Z,102462.88
2023-09-03T21:45:48.195Z,102461.67
2023-09-03T21:48:16.684Z,102468.95
2023-09-03T21:50:44.684Z,102473.16
2023-09-03T21:53:12.666Z,102474.61
2023-09-03T21:55:40.740Z,102476.05
2023-09-03T21:58:08.809Z,102471.67
2023-09-03T22:00:38.006Z,102471.16
2023-09-03T22:03:06.395Z,102468.56
2023-09-03T22:05:34.721Z,102469.98
2023-09-03T22:08:02.763Z,102466.13
2023-09-03T22:10:30.828Z,102465.27
2023-09-03T22:12:59.077Z,102463.89
2023-09-03T22:15:27.242Z,102464.08
2023-09-03T22:17:55.460Z,102471.66
2023-09-03T22:20:25.947Z,102478.90
2023-09-03T22:22:54.248Z,102487.54
2023-09-03T22:25:22.804Z,102498.29
2023-09-03T22:27:50.873Z,102508.16
2023-09-03T22:30:18.968Z,102509.93
2023-09-03T22:32:47.219Z,102515.39
2023-09-03T22:35:15.340Z,102516.81
2023-09-03T22:37:44.567Z,102522.63
2023-09-03T22:40:13.040Z,102522.63
2023-09-03T22:42:41.143Z,102526.33
2023-09-03T22:45:09.378Z,102521.05
2023-09-03T22:47:37.635Z,102526.86
2023-09-03T22:50:06.085Z,102527.92
2023-09-03T22:52:34.444Z,102530.38
2023-09-03T22:55:02.586Z,102533.90
2023-09-03T22:57:30.690Z,102537.08
2023-09-03T22:59:58.692Z,102540.24
2023-09-03T23:02:26.840Z,102536.02
2023-09-03T23:04:54.943Z,102536.73
2023-09-03T23:07:23.075Z,102531.27
2023-09-03T23:09:53.363Z,102532.49
2023-09-03T23:12:21.892Z,102525.64
2023-09-03T23:14:50.049Z,102523.70
2023-09-03T23:17:18.329Z,102520.70
2023-09-03T23:19:46.408Z,102525.10
2023-09-03T23:22:14.570Z,102524.58
2023-09-03T23:24:42.758Z,102521.59
2023-09-03T23:27:10.813Z,102520.17
2023-09-03T23:29:38.897Z,102511.36
2023-09-03T23:32:06.937Z,102500.98
2023-09-03T23:34:36.263Z,102502.57
2023-09-03T23:37:05.025Z,102497.29
2023-09-03T23:39:33.517Z,102493.41
2023-09-03T23:42:01.698Z,102494.29
2023-09-03T23:44:29.701Z,102490.95
2023-09-03T23:47:07.119Z,102486.73
2023-09-03T23:49:41.576Z,102481.27
2023-09-03T23:52:09.987Z,102484.09
2023-09-03T23:54:38.237Z,102488.67
2023-09-03T23:57:06.394Z,102481.10
2023-09-03T23:59:34.465Z,102481.11
